Time;durP1;ratioP1;P1;durP2;ratioP2;P2;SDS_P1;SDS_P2;PMS_P1;PMS_P2;Temp;Humidity;BMP_temperature;BMP_pressure;BME280_temperature;BME280_humidity;BME280_pressure;Samples;Min_cycle;Max_cycle;Signal;HPM_P1;HPM_P2
2022/06/10 00:00:12;;;;;;;;;;;22.00;81.40;;;;;;5071819;28;19908;-73
2022/06/10 00:02:38;;;;;;;;;;;22.00;81.80;;;;;;5070354;28;19916;-73
2022/06/10 00:05:03;;;;;;;;;;;22.00;81.90;;;;;;5070102;28;19908;-73
2022/06/10 00:07:34;;;;;;;;;;;21.90;82.00;;;;;;5071839;28;19923;-73
2022/06/10 00:09:59;;;;;;;;;;;21.80;82.30;;;;;;5071506;28;20323;-73
2022/06/10 00:12:25;;;;;;;;;;;21.80;82.70;;;;;;5071379;28;19922;-73
2022/06/10 00:14:50;;;;;;;;;;;21.70;82.90;;;;;;5071514;28;19908;-73
2022/06/10 00:17:17;;;;;;;;;;;21.70;83.20;;;;;;5071559;28;20024;-73
2022/06/10 00:19:43;;;;;;;;;;;21.60;83.30;;;;;;5071436;28;19913;-73
2022/06/10 00:22:08;;;;;;;;;;;21.60;84.00;;;;;;5071535;28;19923;-73
2022/06/10 00:24:34;;;;;;;;;;;21.50;84.70;;;;;;5069938;28;20372;-73
2022/06/10 00:27:00;;;;;;;;;;;21.40;85.10;;;;;;5071385;28;20395;-73
2022/06/10 00:29:25;;;;;;;;;;;21.30;85.40;;;;;;5069957;28;19908;-73
2022/06/10 00:31:50;;;;;;;;;;;21.20;86.10;;;;;;5069752;28;19960;-73
2022/06/10 00:34:16;;;;;;;;;;;21.20;85.70;;;;;;5071154;28;20354;-73
2022/06/10 00:36:41;;;;;;;;;;;21.20;85.60;;;;;;5071336;28;19916;-73
2022/06/10 00:39:07;;;;;;;;;;;21.20;85.80;;;;;;5069868;28;19909;-73
2022/06/10 00:41:32;;;;;;;;;;;21.20;86.30;;;;;;5071261;28;19930;-73
2022/06/10 00:43:58;;;;;;;;;;;21.10;87.70;;;;;;5071186;28;20299;-73
2022/06/10 00:46:34;;;;;;;;;;;20.90;88.00;;;;;;5071094;28;19912;-72
2022/06/10 00:48:59;;;;;;;;;;;20.80;88.80;;;;;;5071212;28;19915;-72
2022/06/10 00:51:36;;;;;;;;;;;20.70;90.00;;;;;;5071091;28;20375;-72
2022/06/10 00:54:10;;;;;;;;;;;20.50;90.30;;;;;;5071571;28;19908;-73
2022/06/10 00:56:38;;;;;;;;;;;20.40;90.50;;;;;;5071258;28;20323;-73
2022/06/10 00:59:05;;;;;;;;;;;20.30;90.90;;;;;;5069929;28;19909;-73
2022/06/10 01:01:32;;;;;;;;;;;20.30;91.20;;;;;;5071130;28;19916;-73
2022/06/10 01:03:59;;;;;;;;;;;20.10;91.40;;;;;;5069574;28;19915;-73
2022/06/10 01:06:24;;;;;;;;;;;20.10;91.70;;;;;;5070968;28;19916;-73
2022/06/10 01:08:51;;;;;;;;;;;20.00;92.10;;;;;;5069667;28;20043;-72
2022/06/10 01:11:35;;;;;;;;;;;20.00;92.40;;;;;;5071043;28;19912;-72
2022/06/10 01:14:03;;;;;;;;;;;19.90;92.60;;;;;;5070981;28;19921;-73
2022/06/10 01:16:49;;;;;;;;;;;19.90;92.90;;;;;;5071077;28;19908;-73
2022/06/10 01:19:24;;;;;;;;;;;19.80;93.30;;;;;;5070953;28;20229;-72
2022/06/10 01:21:59;;;;;;;;;;;19.80;93.80;;;;;;5070806;28;19924;-72
2022/06/10 01:24:38;;;;;;;;;;;19.70;94.50;;;;;;5074098;28;19965;-72
2022/06/10 01:30:02;;;;;;;;;;;19.60;95.00;;;;;;5074428;28;20003;-72
2022/06/10 01:32:31;;;;;;;;;;;19.50;95.30;;;;;;5074681;28;19924;-72
2022/06/10 01:34:57;;;;;;;;;;;19.50;95.50;;;;;;5074466;28;19920;-73
2022/06/10 01:37:28;;;;;;;;;;;19.50;95.80;;;;;;5074836;28;19973;-73
2022/06/10 01:40:00;;;;;;;;;;;19.40;95.80;;;;;;5074402;28;20374;-72
2022/06/10 01:42:36;;;;;;;;;;;19.40;96.00;;;;;;5074541;28;19916;-72
2022/06/10 01:45:20;;;;;;;;;;;19.30;96.40;;;;;;5074302;28;19909;-72
2022/06/10 01:47:59;;;;;;;;;;;19.30;96.60;;;;;;5074422;28;19916;-72
2022/06/10 01:50:39;;;;;;;;;;;19.30;96.70;;;;;;5074281;28;19934;-72
2022/06/10 01:53:11;;;;;;;;;;;19.20;96.90;;;;;;5074394;28;19920;-72
2022/06/10 01:55:39;;;;;;;;;;;19.20;97.40;;;;;;5074184;28;19910;-72
2022/06/10 01:58:14;;;;;;;;;;;19.10;97.50;;;;;;5073992;28;19963;-72
2022/06/10 02:00:42;;;;;;;;;;;19.10;97.90;;;;;;5073893;28;19909;-72
2022/06/10 02:03:15;;;;;;;;;;;19.10;98.00;;;;;;5074316;28;20276;-72
2022/06/10 02:05:43;;;;;;;;;;;19.10;98.10;;;;;;5072611;28;19932;-72
2022/06/10 02:08:12;;;;;;;;;;;19.00;98.40;;;;;;5074199;28;20008;-73
2022/06/10 02:10:42;;;;;;;;;;;19.00;98.70;;;;;;5073814;28;19915;-72
2022/06/10 02:13:12;;;;;;;;;;;18.80;99.10;;;;;;5074017;28;19924;-72
2022/06/10 02:15:40;;;;;;;;;;;18.90;99.40;;;;;;5073781;28;19913;-72
2022/06/10 02:18:08;;;;;;;;;;;18.90;99.70;;;;;;5073943;28;20265;-73
2022/06/10 02:20:35;;;;;;;;;;;18.90;99.90;;;;;;5073631;28;19962;-72
2022/06/10 02:23:02;;;;;;;;;;;18.90;99.90;;;;;;5072311;28;19920;-71
2022/06/10 02:25:30;;;;;;;;;;;18.90;99.90;;;;;;5073393;28;19947;-73
2022/06/10 02:28:01;;;;;;;;;;;18.80;99.90;;;;;;5073131;28;20347;-71
2022/06/10 02:30:29;;;;;;;;;;;18.80;99.90;;;;;;5081040;28;19951;-72
2022/06/10 02:32:55;;;;;;;;;;;18.90;99.90;;;;;;5074587;28;19926;-72
2022/06/10 02:35:22;;;;;;;;;;;19.00;99.90;;;;;;5072803;28;19912;-71
2022/06/10 02:37:48;;;;;;;;;;;19.10;99.10;;;;;;5071880;28;19967;-72
2022/06/10 02:40:20;;;;;;;;;;;19.20;98.80;;;;;;5073076;28;19952;-72
2022/06/10 02:42:46;;;;;;;;;;;19.30;98.60;;;;;;5073405;28;20011;-71
2022/06/10 02:45:22;;;;;;;;;;;19.40;98.50;;;;;;5073086;28;19999;-71
2022/06/10 02:47:51;;;;;;;;;;;19.50;98.50;;;;;;5073273;28;19982;-72
2022/06/10 02:50:17;;;;;;;;;;;19.50;98.60;;;;;;5073113;28;19908;-71
2022/06/10 02:52:43;;;;;;;;;;;19.50;98.90;;;;;;5072620;28;20277;-71
2022/06/10 02:55:14;;;;;;;;;;;19.50;99.30;;;;;;5071535;28;19909;-72
2022/06/10 03:03:14;;;;;;;;;;;19.30;99.90;;;;;;5073138;28;20042;-71
2022/06/10 03:06:00;;;;;;;;;;;19.30;99.90;;;;;;5072744;28;19973;-73
2022/06/10 03:08:29;;;;;;;;;;;19.30;99.90;;;;;;5073065;28;20015;-73
2022/06/10 03:11:09;;;;;;;;;;;19.40;99.90;;;;;;5072622;28;19997;-72
2022/06/10 03:13:38;;;;;;;;;;;19.50;99.90;;;;;;5071501;28;20435;-72
2022/06/10 03:16:16;;;;;;;;;;;19.50;99.90;;;;;;5071450;28;20368;-73
2022/06/10 03:18:53;;;;;;;;;;;19.50;99.90;;;;;;5073036;28;19959;-72
2022/06/10 03:21:26;;;;;;;;;;;19.40;99.90;;;;;;5072379;28;19908;-73
2022/06/10 03:24:07;;;;;;;;;;;19.40;99.90;;;;;;5070882;28;20280;-73
2022/06/10 03:26:40;;;;;;;;;;;19.40;99.90;;;;;;5072343;28;19923;-73
2022/06/10 03:29:26;;;;;;;;;;;19.40;99.90;;;;;;5070882;28;19912;-73
2022/06/10 03:32:00;;;;;;;;;;;19.40;99.90;;;;;;5072321;28;19966;-73
2022/06/10 03:34:28;;;;;;;;;;;19.40;99.90;;;;;;5072247;28;20319;-73
2022/06/10 03:36:56;;;;;;;;;;;19.40;99.90;;;;;;5072376;28;19917;-73
2022/06/10 03:39:23;;;;;;;;;;;19.40;99.90;;;;;;5072177;28;19912;-73
2022/06/10 03:41:54;;;;;;;;;;;19.50;99.90;;;;;;5072172;28;19920;-73
2022/06/10 03:44:20;;;;;;;;;;;19.50;99.90;;;;;;5072243;28;20319;-75
2022/06/10 03:46:48;;;;;;;;;;;19.50;99.90;;;;;;5071291;28;19919;-73
2022/06/10 03:49:15;;;;;;;;;;;19.60;99.90;;;;;;5070876;28;19961;-73
2022/06/10 03:51:41;;;;;;;;;;;19.60;99.90;;;;;;5071916;28;19919;-73
2022/06/10 03:54:06;;;;;;;;;;;19.60;99.90;;;;;;5071783;28;19912;-73
2022/06/10 03:56:35;;;;;;;;;;;19.60;99.90;;;;;;5070550;28;20031;-71
2022/06/10 03:59:01;;;;;;;;;;;19.50;99.90;;;;;;5071646;28;20003;-71
2022/06/10 04:01:26;;;;;;;;;;;19.80;99.90;;;;;;5071769;28;19952;-71
2022/06/10 04:03:52;;;;;;;;;;;19.80;99.90;;;;;;5070275;28;19912;-71
2022/06/10 04:06:18;;;;;;;;;;;20.00;99.90;;;;;;5071703;28;19915;-71
2022/06/10 04:08:43;;;;;;;;;;;20.00;99.90;;;;;;5071593;28;20007;-73
2022/06/10 04:11:09;;;;;;;;;;;20.10;99.90;;;;;;5071712;28;19999;-73
2022/06/10 04:13:34;;;;;;;;;;;20.20;99.90;;;;;;5071787;28;20364;-71
2022/06/10 04:16:00;;;;;;;;;;;20.30;99.90;;;;;;5071748;28;20272;-72
2022/06/10 04:18:25;;;;;;;;;;;20.30;99.90;;;;;;5072076;28;19912;-72
2022/06/10 04:20:51;;;;;;;;;;;20.40;99.90;;;;;;5071545;28;19944;-72
2022/06/10 04:23:17;;;;;;;;;;;20.40;99.90;;;;;;5071820;28;19932;-72
2022/06/10 04:25:44;;;;;;;;;;;20.60;99.90;;;;;;5069834;28;19921;-72
2022/06/10 04:28:10;;;;;;;;;;;20.60;99.90;;;;;;5071975;28;19928;-72
2022/06/10 04:30:37;;;;;;;;;;;20.70;99.90;;;;;;5071259;28;19908;-73
2022/06/10 04:33:03;;;;;;;;;;;20.80;99.90;;;;;;5071663;28;19928;-71
2022/06/10 04:35:29;;;;;;;;;;;20.90;99.90;;;;;;5071240;28;19916;-72
2022/06/10 04:37:55;;;;;;;;;;;20.80;99.90;;;;;;5071742;28;19916;-73
2022/06/10 04:40:22;;;;;;;;;;;20.90;99.90;;;;;;5071213;28;20382;-73
2022/06/10 04:42:48;;;;;;;;;;;20.80;99.90;;;;;;5071594;28;19974;-73
2022/06/10 04:45:14;;;;;;;;;;;20.80;99.90;;;;;;5071260;28;19909;-73
2022/06/10 04:47:40;;;;;;;;;;;20.90;99.90;;;;;;5071622;28;20348;-72
2022/06/10 04:50:07;;;;;;;;;;;21.00;99.90;;;;;;5071224;28;19915;-72
2022/06/10 04:52:33;;;;;;;;;;;21.10;99.90;;;;;;5069834;28;19928;-73
2022/06/10 04:54:59;;;;;;;;;;;21.10;99.90;;;;;;5071429;28;20020;-72
2022/06/10 04:57:24;;;;;;;;;;;21.20;99.90;;;;;;5073435;28;19955;-73
2022/06/10 04:59:50;;;;;;;;;;;21.30;99.90;;;;;;5075651;28;19908;-73
2022/06/10 05:02:16;;;;;;;;;;;21.40;99.90;;;;;;5075145;28;19916;-73
2022/06/10 05:04:41;;;;;;;;;;;21.50;99.90;;;;;;5075349;28;19951;-72
2022/06/10 05:07:07;;;;;;;;;;;21.60;99.90;;;;;;5075233;28;20384;-73
2022/06/10 05:09:32;;;;;;;;;;;21.70;99.90;;;;;;5074855;28;19946;-72
2022/06/10 05:11:58;;;;;;;;;;;21.90;99.90;;;;;;5074846;28;19921;-73
2022/06/10 05:14:23;;;;;;;;;;;22.00;99.90;;;;;;5073574;28;19908;-73
2022/06/10 05:16:49;;;;;;;;;;;22.00;99.90;;;;;;5073932;28;20376;-73
2022/06/10 05:19:15;;;;;;;;;;;22.10;99.90;;;;;;5074930;28;19908;-72
2022/06/10 05:21:40;;;;;;;;;;;22.20;99.90;;;;;;5074675;28;20245;-73
2022/06/10 05:24:06;;;;;;;;;;;22.30;99.90;;;;;;5074560;28;19948;-73
2022/06/10 05:26:32;;;;;;;;;;;22.40;99.90;;;;;;5074568;28;19909;-73
2022/06/10 05:28:59;;;;;;;;;;;22.40;99.90;;;;;;5074770;28;20003;-73
2022/06/10 05:31:24;;;;;;;;;;;22.50;99.90;;;;;;5074700;28;19908;-73
2022/06/10 05:36:34;;;;;;;;;;;22.70;99.90;;;;;;5074885;28;20013;-73
2022/06/10 05:39:00;;;;;;;;;;;22.80;99.90;;;;;;5074413;28;20382;-73
2022/06/10 05:44:10;;;;;;;;;;;23.00;99.90;;;;;;5074366;28;20345;-72
2022/06/10 05:46:36;;;;;;;;;;;23.20;99.50;;;;;;5074034;28;19955;-72
2022/06/10 05:49:02;;;;;;;;;;;23.20;97.90;;;;;;5074135;28;19912;-72
2022/06/10 05:51:28;;;;;;;;;;;23.20;97.50;;;;;;5073971;28;19917;-72
2022/06/10 05:53:53;;;;;;;;;;;23.30;97.20;;;;;;5072762;28;19920;-73
2022/06/10 05:56:18;;;;;;;;;;;23.30;97.20;;;;;;5074265;28;19999;-72
2022/06/10 05:58:44;;;;;;;;;;;23.40;97.60;;;;;;5074019;28;20380;-72
2022/06/10 06:01:09;;;;;;;;;;;23.40;97.20;;;;;;5074228;28;19913;-72
2022/06/10 06:03:37;;;;;;;;;;;23.50;97.30;;;;;;5074623;28;19916;-72
2022/06/10 06:06:03;;;;;;;;;;;23.60;97.20;;;;;;5074062;28;20223;-72
2022/06/10 06:08:28;;;;;;;;;;;23.70;96.50;;;;;;5073903;28;19959;-72
2022/06/10 06:10:54;;;;;;;;;;;23.80;95.90;;;;;;5073802;28;19917;-72
2022/06/10 06:13:20;;;;;;;;;;;23.80;95.90;;;;;;5074212;28;19946;-72
2022/06/10 06:15:46;;;;;;;;;;;23.90;96.00;;;;;;5073794;28;20003;-72
2022/06/10 06:18:11;;;;;;;;;;;23.90;95.30;;;;;;5074241;28;19917;-72
2022/06/10 06:20:37;;;;;;;;;;;24.10;95.30;;;;;;5072054;28;20275;-72
2022/06/10 06:23:03;;;;;;;;;;;24.20;94.80;;;;;;5074002;28;19916;-72
2022/06/10 06:25:30;;;;;;;;;;;24.20;94.90;;;;;;5072116;28;19920;-72
2022/06/10 06:27:56;;;;;;;;;;;24.30;94.60;;;;;;5073383;28;19931;-72
2022/06/10 06:30:26;;;;;;;;;;;24.40;94.50;;;;;;5073539;28;19909;-72
2022/06/10 06:32:52;;;;;;;;;;;24.50;94.30;;;;;;5073851;28;19920;-72
2022/06/10 06:35:17;;;;;;;;;;;24.60;93.40;;;;;;5072044;28;20601;-72
2022/06/10 06:37:43;;;;;;;;;;;24.60;94.00;;;;;;5073609;28;20028;-72
2022/06/10 06:40:09;;;;;;;;;;;24.60;93.70;;;;;;5072213;28;20431;-72
2022/06/10 06:42:36;;;;;;;;;;;24.70;93.60;;;;;;5072467;28;19963;-73
2022/06/10 06:45:02;;;;;;;;;;;24.70;93.40;;;;;;5073737;28;19909;-73
2022/06/10 06:47:28;;;;;;;;;;;24.90;93.70;;;;;;5073264;28;19920;-73
2022/06/10 06:49:53;;;;;;;;;;;25.10;92.30;;;;;;5072957;28;19915;-71
2022/06/10 06:52:19;;;;;;;;;;;25.10;92.20;;;;;;5072957;28;19973;-72
2022/06/10 06:54:45;;;;;;;;;;;25.20;92.20;;;;;;5071993;28;19974;-72
2022/06/10 06:57:11;;;;;;;;;;;25.40;91.80;;;;;;5072385;28;20280;-72
2022/06/10 06:59:38;;;;;;;;;;;25.50;91.70;;;;;;5071629;28;19913;-72
2022/06/10 07:02:03;;;;;;;;;;;25.60;91.30;;;;;;5072989;28;19923;-72
2022/06/10 07:04:29;;;;;;;;;;;25.70;89.30;;;;;;5072612;28;20276;-72
2022/06/10 07:06:54;;;;;;;;;;;25.70;90.20;;;;;;5072864;28;19917;-72
2022/06/10 07:09:20;;;;;;;;;;;25.90;90.10;;;;;;5072760;28;20328;-72
2022/06/10 07:11:46;;;;;;;;;;;26.00;89.70;;;;;;5071106;28;19917;-71
2022/06/10 07:14:12;;;;;;;;;;;26.10;88.80;;;;;;5072586;28;19962;-72
2022/06/10 07:16:37;;;;;;;;;;;26.40;85.80;;;;;;5054443;28;19956;-72
2022/06/10 07:19:03;;;;;;;;;;;26.50;82.40;;;;;;5072635;28;19932;-71
2022/06/10 07:21:30;;;;;;;;;;;26.50;82.00;;;;;;5070829;28;19934;-71
2022/06/10 07:23:55;;;;;;;;;;;26.60;83.50;;;;;;5071000;28;20003;-72
2022/06/10 07:26:21;;;;;;;;;;;26.60;82.30;;;;;;5070968;28;20097;-73
2022/06/10 07:28:46;;;;;;;;;;;26.80;80.40;;;;;;5071210;28;19908;-73
2022/06/10 07:31:12;;;;;;;;;;;27.00;81.60;;;;;;5072288;28;19958;-74
2022/06/10 07:33:37;;;;;;;;;;;27.20;79.70;;;;;;5072161;28;20404;-74
2022/06/10 07:36:05;;;;;;;;;;;27.30;79.10;;;;;;5071087;28;20269;-73
2022/06/10 07:38:30;;;;;;;;;;;27.40;80.00;;;;;;5072925;28;19965;-73
2022/06/10 07:43:41;;;;;;;;;;;27.70;77.70;;;;;;5072375;28;20019;-74
2022/06/10 07:46:08;;;;;;;;;;;27.80;75.30;;;;;;5072555;28;19916;-73
2022/06/10 07:48:34;;;;;;;;;;;27.90;74.10;;;;;;5072801;28;20319;-74
2022/06/10 07:50:59;;;;;;;;;;;27.80;73.30;;;;;;5071793;28;19913;-74
2022/06/10 07:53:25;;;;;;;;;;;27.90;73.80;;;;;;5072249;28;19928;-74
2022/06/10 07:55:51;;;;;;;;;;;28.00;74.40;;;;;;5071823;28;19908;-74
2022/06/10 07:58:17;;;;;;;;;;;28.20;73.50;;;;;;5072033;28;20265;-72
2022/06/10 08:00:43;;;;;;;;;;;28.40;72.90;;;;;;5071482;28;19932;-72
2022/06/10 08:03:09;;;;;;;;;;;28.30;72.10;;;;;;5071873;28;20364;-72
2022/06/10 08:05:34;;;;;;;;;;;28.30;72.90;;;;;;5071632;28;19908;-72
2022/06/10 08:08:01;;;;;;;;;;;28.30;72.40;;;;;;5072059;28;20309;-72
2022/06/10 08:10:31;;;;;;;;;;;28.50;72.20;;;;;;5071662;28;20433;-72
2022/06/10 08:12:57;;;;;;;;;;;28.70;72.30;;;;;;5071484;28;19946;-72
2022/06/10 08:15:23;;;;;;;;;;;28.70;70.90;;;;;;5071540;28;20360;-73
2022/06/10 08:17:50;;;;;;;;;;;28.70;71.50;;;;;;5070354;28;20299;-72
2022/06/10 08:20:19;;;;;;;;;;;28.80;72.50;;;;;;5071283;28;20003;-72
2022/06/10 08:22:45;;;;;;;;;;;29.00;72.50;;;;;;5071481;28;19967;-72
2022/06/10 08:25:11;;;;;;;;;;;29.20;71.90;;;;;;5071113;28;19924;-72
2022/06/10 08:27:37;;;;;;;;;;;29.30;70.80;;;;;;5071701;28;19959;-73
2022/06/10 08:30:05;;;;;;;;;;;29.40;70.40;;;;;;5071302;28;19943;-73
2022/06/10 08:32:30;;;;;;;;;;;29.40;69.90;;;;;;5070897;28;19944;-73
2022/06/10 08:34:56;;;;;;;;;;;29.30;70.40;;;;;;5071476;28;20344;-73
2022/06/10 08:37:21;;;;;;;;;;;29.50;70.20;;;;;;5071226;28;19920;-73
2022/06/10 08:39:47;;;;;;;;;;;29.60;70.10;;;;;;5069852;28;20368;-73
2022/06/10 08:42:33;;;;;;;;;;;29.40;71.40;;;;;;5071291;28;20268;-73
2022/06/10 08:45:02;;;;;;;;;;;29.10;70.90;;;;;;5071036;28;19916;-73
2022/06/10 08:47:27;;;;;;;;;;;29.30;70.60;;;;;;5071390;28;19920;-73
2022/06/10 08:49:56;;;;;;;;;;;29.60;71.00;;;;;;5071002;28;19935;-72
2022/06/10 08:52:30;;;;;;;;;;;29.60;69.30;;;;;;5071061;28;19921;-72
2022/06/10 08:55:03;;;;;;;;;;;29.20;69.80;;;;;;5070968;28;19913;-74
2022/06/10 08:57:43;;;;;;;;;;;29.10;70.40;;;;;;5071254;28;19917;-73
2022/06/10 09:00:19;;;;;;;;;;;29.30;69.80;;;;;;5071086;28;19966;-73
2022/06/10 09:02:49;;;;;;;;;;;29.50;69.40;;;;;;5071383;28;20007;-72
2022/06/10 09:05:20;;;;;;;;;;;29.40;69.20;;;;;;5070862;28;19917;-72
2022/06/10 09:07:57;;;;;;;;;;;29.10;70.30;;;;;;5069884;28;20011;-72
2022/06/10 09:10:26;;;;;;;;;;;29.50;70.60;;;;;;5070782;28;19912;-72
2022/06/10 09:12:52;;;;;;;;;;;29.60;67.60;;;;;;5071083;28;19921;-72
2022/06/10 09:15:18;;;;;;;;;;;29.30;68.50;;;;;;5070787;28;19912;-72
2022/06/10 09:17:48;;;;;;;;;;;29.00;68.00;;;;;;5071034;28;19920;-72
2022/06/10 09:20:14;;;;;;;;;;;28.80;69.00;;;;;;5070779;28;20007;-72
2022/06/10 09:22:39;;;;;;;;;;;28.80;67.90;;;;;;5070702;28;20053;-72
2022/06/10 09:25:24;;;;;;;;;;;28.80;68.60;;;;;;5070547;28;20352;-72
2022/06/10 09:27:52;;;;;;;;;;;28.80;67.90;;;;;;5071149;28;19951;-72
2022/06/10 09:30:19;;;;;;;;;;;28.70;69.10;;;;;;5070512;28;20015;-71
2022/06/10 09:33:04;;;;;;;;;;;28.50;69.70;;;;;;5070951;28;19972;-73
2022/06/10 09:35:35;;;;;;;;;;;28.80;67.90;;;;;;5070498;28;19958;-72
2022/06/10 09:38:19;;;;;;;;;;;29.50;68.10;;;;;;5070958;28;19916;-72
2022/06/10 09:40:51;;;;;;;;;;;29.80;66.40;;;;;;5070623;28;19959;-72
2022/06/10 09:43:17;;;;;;;;;;;29.70;66.80;;;;;;5071050;28;19995;-73
2022/06/10 09:46:01;;;;;;;;;;;29.30;66.80;;;;;;5074134;28;20023;-72
2022/06/10 09:48:39;;;;;;;;;;;28.90;67.50;;;;;;5074527;28;19924;-72
2022/06/10 09:51:10;;;;;;;;;;;28.70;68.40;;;;;;5074099;28;19909;-73
2022/06/10 09:53:45;;;;;;;;;;;28.70;68.60;;;;;;5073965;28;19925;-72
2022/06/10 09:56:29;;;;;;;;;;;28.60;67.30;;;;;;5074076;28;19962;-68
2022/06/10 09:59:04;;;;;;;;;;;28.50;68.00;;;;;;5073888;28;20374;-68
2022/06/10 10:01:38;;;;;;;;;;;28.60;68.50;;;;;;5073883;28;19909;-68
2022/06/10 10:04:03;;;;;;;;;;;28.70;68.10;;;;;;5073813;28;20343;-65
2022/06/10 10:06:35;;;;;;;;;;;28.80;68.30;;;;;;5073695;28;19923;-65
2022/06/10 10:09:01;;;;;;;;;;;28.60;69.20;;;;;;5073450;28;19909;-65
2022/06/10 10:11:29;;;;;;;;;;;28.40;69.00;;;;;;5073569;28;20261;-66
2022/06/10 10:14:12;;;;;;;;;;;28.40;70.60;;;;;;5073550;28;19912;-65
2022/06/10 10:16:56;;;;;;;;;;;28.10;69.70;;;;;;5073802;28;19931;-65
2022/06/10 10:19:37;;;;;;;;;;;28.00;68.80;;;;;;5073876;28;20315;-66
2022/06/10 10:22:23;;;;;;;;;;;28.00;69.00;;;;;;5073566;28;19916;-65
2022/06/10 10:24:48;;;;;;;;;;;28.10;67.90;;;;;;5073167;28;19975;-65
2022/06/10 10:27:22;;;;;;;;;;;28.50;67.40;;;;;;5071884;28;20006;-65
2022/06/10 10:29:51;;;;;;;;;;;29.10;68.10;;;;;;5073273;28;20121;-65
2022/06/10 10:32:21;;;;;;;;;;;29.10;67.90;;;;;;5073550;28;19927;-66
2022/06/10 10:34:53;;;;;;;;;;;29.00;68.30;;;;;;5073175;28;19916;-66
2022/06/10 10:37:23;;;;;;;;;;;28.80;67.50;;;;;;5073025;28;19916;-65
2022/06/10 10:39:53;;;;;;;;;;;29.00;68.00;;;;;;5073262;28;19969;-65
2022/06/10 10:42:20;;;;;;;;;;;29.20;67.20;;;;;;5073192;28;20017;-65
2022/06/10 10:44:47;;;;;;;;;;;29.10;67.90;;;;;;5073237;28;19916;-66
2022/06/10 10:47:12;;;;;;;;;;;28.90;68.60;;;;;;5073193;28;19923;-65
2022/06/10 10:49:46;;;;;;;;;;;28.90;68.60;;;;;;5073065;28;19916;-65
2022/06/10 10:52:17;;;;;;;;;;;28.70;67.90;;;;;;5071429;28;19964;-65
2022/06/10 10:54:44;;;;;;;;;;;28.70;67.10;;;;;;5072385;28;19958;-66
2022/06/10 10:57:32;;;;;;;;;;;29.30;67.60;;;;;;5072878;28;19916;-66
2022/06/10 11:00:04;;;;;;;;;;;30.00;67.80;;;;;;5072611;28;20279;-66
2022/06/10 11:02:35;;;;;;;;;;;31.00;66.90;;;;;;5072916;28;19920;-66
2022/06/10 11:05:11;;;;;;;;;;;31.60;64.10;;;;;;5072575;28;20015;-66
2022/06/10 11:07:36;;;;;;;;;;;31.30;62.40;;;;;;5072911;28;19923;-66
2022/06/10 11:10:21;;;;;;;;;;;30.90;63.20;;;;;;5072761;28;19908;-66
2022/06/10 11:12:47;;;;;;;;;;;30.80;63.00;;;;;;5072671;28;19970;-66
2022/06/10 11:15:28;;;;;;;;;;;31.20;63.20;;;;;;5071050;28;19912;-66
2022/06/10 11:17:56;;;;;;;;;;;31.70;62.50;;;;;;5072708;28;20019;-66
2022/06/10 11:20:23;;;;;;;;;;;32.00;60.10;;;;;;5072416;28;19909;-65
2022/06/10 11:22:49;;;;;;;;;;;32.00;60.60;;;;;;5072622;28;19916;-64
2022/06/10 11:25:28;;;;;;;;;;;32.10;59.30;;;;;;5071848;28;19920;-65
2022/06/10 11:27:55;;;;;;;;;;;32.30;60.00;;;;;;5072360;28;19916;-65
2022/06/10 11:30:22;;;;;;;;;;;32.50;60.90;;;;;;5071977;28;19920;-65
2022/06/10 11:33:06;;;;;;;;;;;32.10;59.40;;;;;;5071960;28;19920;-65
2022/06/10 11:35:36;;;;;;;;;;;31.30;60.10;;;;;;5071990;28;20317;-65
2022/06/10 11:38:16;;;;;;;;;;;30.90;61.40;;;;;;5072460;28;19917;-73
2022/06/10 11:40:48;;;;;;;;;;;31.00;61.10;;;;;;5070736;28;19919;-73
2022/06/10 11:43:33;;;;;;;;;;;31.20;59.60;;;;;;5072374;28;19928;-73
2022/06/10 11:46:11;;;;;;;;;;;31.70;60.10;;;;;;5071938;28;19912;-74
2022/06/10 11:48:40;;;;;;;;;;;32.20;61.10;;;;;;5072319;28;19917;-72
2022/06/10 11:51:14;;;;;;;;;;;32.70;59.70;;;;;;5071993;28;20381;-74
2022/06/10 11:53:39;;;;;;;;;;;32.90;58.90;;;;;;5070369;28;19921;-73
2022/06/10 12:01:47;;;;;;;;;;;32.80;58.70;;;;;;5071491;28;20272;-72
2022/06/10 12:04:12;;;;;;;;;;;32.80;57.90;;;;;;5071542;28;19958;-66
2022/06/10 12:06:44;;;;;;;;;;;32.80;57.70;;;;;;5070917;28;19924;-64
2022/06/10 12:09:39;;;;;;;;;;;32.50;57.20;;;;;;5071356;28;20340;-65
2022/06/10 12:12:09;;;;;;;;;;;32.40;57.60;;;;;;5062228;28;19916;-65
2022/06/10 12:14:44;;;;;;;;;;;32.40;57.20;;;;;;5071168;28;19909;-65
2022/06/10 12:17:30;;;;;;;;;;;32.40;56.90;;;;;;5071378;28;19972;-66
2022/06/10 12:20:04;;;;;;;;;;;32.10;56.60;;;;;;5071272;28;19931;-64
2022/06/10 12:22:30;;;;;;;;;;;31.80;56.30;;;;;;5071262;28;19920;-65
2022/06/10 12:24:56;;;;;;;;;;;31.80;56.50;;;;;;5070435;28;19973;-65
2022/06/10 12:27:25;;;;;;;;;;;31.90;57.50;;;;;;5071269;28;19917;-65
2022/06/10 12:30:02;;;;;;;;;;;32.00;56.40;;;;;;5071367;28;20357;-66
2022/06/10 12:32:39;;;;;;;;;;;32.00;57.10;;;;;;5071278;28;19921;-66
2022/06/10 12:35:16;;;;;;;;;;;32.00;56.80;;;;;;5071395;28;20007;-66
2022/06/10 12:37:45;;;;;;;;;;;31.90;56.10;;;;;;5071321;28;19951;-66
2022/06/10 12:40:26;;;;;;;;;;;31.60;56.10;;;;;;5070997;28;20350;-66
2022/06/10 12:43:10;;;;;;;;;;;31.50;55.60;;;;;;5071346;28;19916;-66
2022/06/10 12:45:46;;;;;;;;;;;31.40;56.10;;;;;;5071444;28;20408;-65
2022/06/10 12:48:15;;;;;;;;;;;31.20;56.40;;;;;;5071248;28;20301;-67
2022/06/10 12:50:49;;;;;;;;;;;30.80;56.30;;;;;;5069618;28;19983;-64
2022/06/10 12:53:19;;;;;;;;;;;30.60;56.80;;;;;;5070952;28;19953;-64
2022/06/10 12:55:47;;;;;;;;;;;30.30;57.00;;;;;;5071192;28;20372;-65
2022/06/10 12:58:31;;;;;;;;;;;30.40;57.20;;;;;;5070919;28;20015;-65
2022/06/10 13:01:10;;;;;;;;;;;30.40;57.60;;;;;;5070842;28;19986;-65
2022/06/10 13:03:37;;;;;;;;;;;30.50;57.80;;;;;;5070954;28;19916;-64
2022/06/10 13:06:05;;;;;;;;;;;30.50;57.70;;;;;;5070818;28;19956;-65
2022/06/10 13:08:30;;;;;;;;;;;30.50;58.10;;;;;;5071050;28;19952;-64
2022/06/10 13:10:57;;;;;;;;;;;30.50;58.40;;;;;;5070614;28;19963;-65
2022/06/10 13:13:23;;;;;;;;;;;30.40;58.30;;;;;;5069036;28;19924;-65
2022/06/10 13:15:51;;;;;;;;;;;30.30;57.70;;;;;;5069459;28;20387;-65
2022/06/10 13:18:16;;;;;;;;;;;30.10;57.00;;;;;;5072502;28;19920;-66
2022/06/10 13:20:43;;;;;;;;;;;30.00;57.30;;;;;;5073326;28;20315;-65
2022/06/10 13:23:16;;;;;;;;;;;29.90;57.60;;;;;;5074710;28;20015;-64
2022/06/10 13:25:43;;;;;;;;;;;30.00;58.30;;;;;;5074238;28;19921;-64
2022/06/10 13:28:18;;;;;;;;;;;30.00;58.80;;;;;;5075094;28;19924;-64
2022/06/10 13:30:44;;;;;;;;;;;30.00;59.30;;;;;;5073774;28;20311;-65
2022/06/10 13:33:15;;;;;;;;;;;30.00;58.60;;;;;;5072397;28;19920;-69
2022/06/10 13:35:43;;;;;;;;;;;30.00;58.50;;;;;;5073994;28;19915;-74
2022/06/10 13:38:21;;;;;;;;;;;29.90;58.70;;;;;;5074608;28;20422;-74
2022/06/10 13:40:51;;;;;;;;;;;29.90;58.80;;;;;;5074675;28;19912;-73
2022/06/10 13:43:25;;;;;;;;;;;29.90;59.10;;;;;;5072767;28;19916;-74
2022/06/10 13:45:50;;;;;;;;;;;30.00;59.50;;;;;;5074268;28;19912;-74
2022/06/10 13:48:20;;;;;;;;;;;30.00;58.00;;;;;;5074525;28;20323;-74
2022/06/10 13:51:16;;;;;;;;;;;29.90;56.80;;;;;;5072912;28;19922;-74
2022/06/10 13:53:55;;;;;;;;;;;29.60;56.80;;;;;;5074567;28;20493;-73
2022/06/10 13:56:28;;;;;;;;;;;29.40;56.90;;;;;;5074211;28;19909;-73
2022/06/10 13:58:54;;;;;;;;;;;29.30;56.60;;;;;;5072730;28;20312;-73
2022/06/10 14:01:21;;;;;;;;;;;29.10;56.60;;;;;;5073950;28;20018;-73
2022/06/10 14:03:50;;;;;;;;;;;29.00;57.00;;;;;;5073809;28;19919;-73
2022/06/10 14:06:16;;;;;;;;;;;29.00;57.40;;;;;;5073935;28;19955;-74
2022/06/10 14:08:54;;;;;;;;;;;28.90;57.30;;;;;;5072361;28;19955;-74
2022/06/10 14:11:30;;;;;;;;;;;28.90;57.60;;;;;;5074219;28;19912;-75
2022/06/10 14:13:57;;;;;;;;;;;28.90;57.80;;;;;;5072397;28;20017;-74
2022/06/10 14:16:24;;;;;;;;;;;28.80;57.50;;;;;;5073988;28;19940;-74
2022/06/10 14:18:50;;;;;;;;;;;28.80;57.60;;;;;;5072690;28;19985;-74
2022/06/10 14:21:15;;;;;;;;;;;28.70;57.20;;;;;;5073818;28;19909;-74
2022/06/10 14:24:00;;;;;;;;;;;28.60;57.40;;;;;;5074019;28;20315;-74
2022/06/10 14:26:27;;;;;;;;;;;28.60;58.00;;;;;;5073569;28;19913;-74
2022/06/10 14:29:05;;;;;;;;;;;28.70;58.20;;;;;;5072008;28;20356;-74
2022/06/10 14:31:31;;;;;;;;;;;28.80;57.70;;;;;;5072089;28;19909;-73
2022/06/10 14:33:58;;;;;;;;;;;28.80;57.60;;;;;;5072232;28;19958;-74
2022/06/10 14:36:25;;;;;;;;;;;28.70;57.70;;;;;;5071925;28;19909;-73
2022/06/10 14:39:03;;;;;;;;;;;28.70;57.80;;;;;;5073317;28;19913;-73
2022/06/10 14:41:29;;;;;;;;;;;28.60;57.40;;;;;;5072202;28;20368;-74
2022/06/10 14:44:02;;;;;;;;;;;28.60;57.10;;;;;;5071744;28;19958;-74
2022/06/10 14:46:29;;;;;;;;;;;28.60;57.50;;;;;;5071885;28;19909;-75
2022/06/10 14:48:54;;;;;;;;;;;28.60;56.60;;;;;;5073366;28;20284;-74
2022/06/10 14:51:49;;;;;;;;;;;28.60;56.40;;;;;;5071676;28;19916;-73